createdAt,value
2022-09-20T08:20:19.467Z,2.47
2022-09-20T08:23:00.971Z,3.30
2022-09-20T08:25:34.815Z,2.30
2022-09-20T08:28:02.681Z,2.67
2022-09-20T08:30:30.920Z,2.08
2022-09-20T08:33:02.303Z,2.28
2022-09-20T08:35:29.765Z,1.98
2022-09-20T08:37:57.551Z,1.73
2022-09-20T08:40:45.142Z,3.03
2022-09-20T08:43:13.045Z,3.35
2022-09-20T08:45:42.278Z,3.47
2022-09-20T08:48:17.230Z,3.63
2022-09-20T08:50:44.798Z,3.92
2022-09-20T08:53:20.930Z,3.30
2022-09-20T08:55:49.295Z,2.88
2022-09-20T08:58:17.133Z,2.78
2022-09-20T09:00:47.677Z,3.65
2022-09-20T09:03:18.532Z,2.28
2022-09-20T09:05:48.200Z,2.55
2022-09-20T09:08:18.899Z,2.70
2022-09-20T09:10:54.655Z,1.80
2022-09-20T09:13:27.706Z,1.90
2022-09-20T09:15:58.671Z,1.95
2022-09-20T09:18:34.104Z,2.67
2022-09-20T09:21:04.114Z,2.65
2022-09-20T09:23:38.326Z,2.95
2022-09-20T09:26:06.401Z,2.80
2022-09-20T09:28:36.913Z,2.80
2022-09-20T09:31:21.583Z,2.85
2022-09-20T09:33:50.459Z,2.70
2022-09-20T09:36:23.547Z,2.60
2022-09-20T09:38:51.463Z,3.13
2022-09-20T09:41:28.724Z,2.22
2022-09-20T09:44:01.264Z,2.88
2022-09-20T09:46:33.105Z,3.55
2022-09-20T09:49:14.005Z,3.55
2022-09-20T09:51:43.945Z,3.60
2022-09-20T09:54:19.766Z,3.85
2022-09-20T09:56:59.555Z,3.85
2022-09-20T09:59:52.551Z,4.05
2022-09-20T10:02:41.223Z,3.25
2022-09-20T10:05:18.220Z,3.38
2022-09-20T10:07:51.999Z,3.13
2022-09-20T10:10:30.235Z,3.40
2022-09-20T10:13:11.107Z,3.73
2022-09-20T10:15:44.410Z,3.40
2022-09-20T10:18:27.572Z,3.40
2022-09-20T10:21:10.106Z,3.40
2022-09-20T10:24:06.221Z,3.15
2022-09-20T10:27:03.212Z,3.80
2022-09-20T10:29:43.137Z,3.63
2022-09-20T10:32:26.152Z,4.95
2022-09-20T10:35:11.525Z,4.80
2022-09-20T10:37:54.019Z,5.03
2022-09-20T10:40:51.343Z,5.00
2022-09-20T10:43:35.392Z,4.90
2022-09-20T10:46:31.395Z,4.32
2022-09-20T10:49:05.546Z,2.95
2022-09-20T10:51:45.025Z,2.80
2022-09-20T10:54:27.069Z,3.00
2022-09-20T10:57:07.875Z,2.63
2022-09-20T10:59:48.260Z,3.95
2022-09-20T11:02:31.097Z,3.40
2022-09-20T11:05:20.623Z,4.03
2022-09-20T11:07:57.884Z,3.55
2022-09-20T11:10:36.042Z,3.90
2022-09-20T11:13:08.339Z,3.83
2022-09-20T11:15:43.433Z,3.90
2022-09-20T11:18:17.327Z,3.90
2022-09-20T11:20:48.291Z,4.30
2022-09-20T11:23:21.060Z,3.60
2022-09-20T11:25:53.639Z,3.83
2022-09-20T11:28:27.384Z,4.00
2022-09-20T11:31:02.273Z,4.03
2022-09-20T11:33:38.063Z,3.85
2022-09-20T11:36:14.440Z,4.60
2022-09-20T11:38:53.015Z,4.10
2022-09-20T11:41:27.124Z,3.85
2022-09-20T11:43:59.779Z,3.63
2022-09-20T11:46:32.167Z,3.30
2022-09-20T11:49:03.915Z,3.25
2022-09-20T11:51:48.519Z,3.47
2022-09-20T11:54:31.171Z,3.45
2022-09-20T11:57:00.584Z,3.85
2022-09-20T11:59:33.941Z,3.50
2022-09-20T12:02:05.161Z,3.90
2022-09-20T12:04:36.219Z,3.00
2022-09-20T12:07:10.649Z,3.65
2022-09-20T12:09:43.446Z,3.17
2022-09-20T12:12:20.105Z,2.67
2022-09-20T12:14:55.947Z,2.10
2022-09-20T12:18:17.291Z,2.30
2022-09-20T12:21:03.060Z,2.50
2022-09-20T12:24:10.318Z,2.85
2022-09-20T12:26:56.198Z,2.95
2022-09-20T12:30:04.176Z,2.67
2022-09-20T12:32:57.383Z,2.85
2022-09-20T12:36:14.466Z,2.05
2022-09-20T12:39:06.566Z,2.53
2022-09-20T12:41:53.522Z,2.00
2022-09-20T12:44:29.226Z,2.17
2022-09-20T12:47:00.508Z,1.80
2022-09-20T12:50:07.566Z,1.75
2022-09-20T12:52:57.333Z,2.13
2022-09-20T12:55:55.294Z,1.92
2022-09-20T12:58:27.223Z,1.80
2022-09-20T13:01:28.445Z,2.03
2022-09-20T13:04:36.313Z,2.25
2022-09-20T13:07:46.899Z,1.25
2022-09-20T13:10:27.033Z,1.90
2022-09-20T13:13:00.278Z,1.27
2022-09-20T13:15:28.413Z,1.30
2022-09-20T13:17:59.073Z,1.48
2022-09-20T13:20:31.371Z,1.65
2022-09-20T13:23:00.583Z,1.55
2022-09-20T13:25:28.779Z,1.48
2022-09-20T13:28:04.324Z,1.30
2022-09-20T13:30:32.721Z,1.10
2022-09-20T13:33:17.388Z,1.23
2022-09-20T13:35:50.148Z,1.20
2022-09-20T13:38:24.937Z,1.45
2022-09-20T13:40:54.111Z,1.35
2022-09-20T13:43:28.845Z,1.33
2022-09-20T13:45:58.677Z,1.20
2022-09-20T13:48:27.615Z,1.17
2022-09-20T13:50:57.307Z,0.90
2022-09-20T13:56:11.227Z,0.70
2022-09-20T13:58:39.310Z,0.70
2022-09-20T14:01:21.891Z,0.70
2022-09-20T14:03:49.648Z,0.60
2022-09-20T14:06:18.522Z,0.77
2022-09-20T14:08:49.467Z,0.82
2022-09-20T14:11:19.774Z,0.63
2022-09-20T14:13:50.635Z,0.80
2022-09-20T14:16:21.255Z,1.23
2022-09-20T14:18:50.323Z,0.85
2022-09-20T14:21:24.329Z,0.93
2022-09-20T14:23:54.111Z,0.63
2022-09-20T14:26:24.141Z,0.77
2022-09-20T14:28:51.762Z,0.68
2022-09-20T14:31:24.085Z,1.08
2022-09-20T14:33:55.371Z,0.65
2022-09-20T14:36:27.430Z,0.80
2022-09-20T14:38:57.462Z,0.80
2022-09-20T14:41:32.333Z,0.77
2022-09-20T14:44:02.554Z,0.90
2022-09-20T14:46:33.854Z,0.80
2022-09-20T14:49:21.797Z,0.95
2022-09-20T14:51:51.081Z,0.70
2022-09-20T14:54:27.958Z,0.70
2022-09-20T14:56:57.581Z,0.50
2022-09-20T15:02:01.732Z,0.60
2022-09-20T15:04:31.570Z,0.55
2022-09-20T15:07:03.948Z,0.30
2022-09-20T15:09:31.417Z,0.22
2022-09-20T15:12:04.400Z,0.30
2022-09-20T15:14:37.202Z,0.30
2022-09-20T15:17:06.041Z,0.30
2022-09-20T15:19:34.421Z,0.30
2022-09-20T15:22:03.444Z,0.40
2022-09-20T15:24:30.968Z,0.30
2022-09-20T15:26:58.421Z,0.30
2022-09-20T15:29:26.020Z,0.68
2022-09-20T15:31:53.951Z,0.40
2022-09-20T15:34:21.429Z,0.45
2022-09-20T15:36:49.129Z,0.40
2022-09-20T15:39:17.940Z,0.55
2022-09-20T15:41:46.028Z,0.30
2022-09-20T15:44:17.163Z,0.55
2022-09-20T15:46:44.690Z,0.30
2022-09-20T15:49:13.714Z,0.60
2022-09-20T15:51:42.222Z,0.50
2022-09-20T15:54:14.600Z,0.35
2022-09-20T15:56:43.942Z,0.57
2022-09-20T15:59:13.324Z,1.10
2022-09-20T16:01:42.403Z,0.70
2022-09-20T16:04:10.804Z,0.80
2022-09-20T16:06:39.552Z,0.50
2022-09-20T16:09:07.724Z,0.40
2022-09-20T16:11:35.698Z,0.50
2022-09-20T16:14:04.739Z,0.57
2022-09-20T16:16:38.886Z,0.50
2022-09-20T16:19:20.359Z,0.50
2022-09-20T16:21:55.062Z,0.52
2022-09-20T16:24:25.577Z,0.43
2022-09-20T16:26:53.553Z,0.60
2022-09-20T16:29:23.456Z,0.63
2022-09-20T16:31:51.409Z,0.80
2022-09-20T16:34:20.844Z,0.68
2022-09-20T16:36:51.621Z,1.27
2022-09-20T16:39:20.663Z,0.75
2022-09-20T16:41:50.612Z,0.88
2022-09-20T16:44:18.679Z,1.13
2022-09-20T16:46:47.526Z,0.98
2022-09-20T16:49:16.717Z,1.10
2022-09-20T16:51:46.253Z,1.20
2022-09-20T16:54:15.447Z,0.90
2022-09-20T16:56:45.534Z,0.80
2022-09-20T16:59:15.477Z,0.57
2022-09-20T17:01:43.719Z,0.60
2022-09-20T17:04:14.286Z,0.60
2022-09-20T17:06:43.250Z,0.95
2022-09-20T17:09:11.447Z,0.80
2022-09-20T17:11:41.731Z,15.13
2022-09-20T17:14:09.751Z,1.80
2022-09-20T17:16:39.158Z,2.33
2022-09-20T17:19:08.927Z,1.20
2022-09-20T17:21:40.138Z,1.05
2022-09-20T17:24:08.675Z,2.70
2022-09-20T17:26:38.760Z,1.85
2022-09-20T17:29:08.111Z,1.70
2022-09-20T17:31:37.764Z,1.67
2022-09-20T17:36:39.105Z,2.10
2022-09-20T17:39:10.842Z,2.05
2022-09-20T17:41:39.749Z,4.80
2022-09-20T17:44:08.287Z,3.77
2022-09-20T17:46:37.815Z,2.90
2022-09-20T17:49:07.487Z,3.13
2022-09-20T17:51:39.253Z,4.03
2022-09-20T17:54:08.628Z,1.80
2022-09-20T17:56:37.114Z,2.00
2022-09-20T17:59:06.185Z,2.00
2022-09-20T18:01:35.988Z,5.82
2022-09-20T18:06:34.282Z,6.50
2022-09-20T18:09:03.829Z,4.40
2022-09-20T18:11:34.627Z,7.32
2022-09-20T18:14:03.687Z,3.22
2022-09-20T18:16:32.186Z,4.30
2022-09-20T18:19:00.175Z,2.67
2022-09-20T18:21:29.305Z,2.80
2022-09-20T18:23:57.418Z,2.58
2022-09-20T18:26:27.483Z,2.33
2022-09-20T18:28:58.455Z,2.17
2022-09-20T18:31:28.361Z,3.40
2022-09-20T18:36:27.235Z,2.88
2022-09-20T18:38:55.708Z,1.30
2022-09-20T18:41:25.920Z,2.70
2022-09-20T18:43:56.363Z,1.83
2022-09-20T18:46:27.448Z,1.50
2022-09-20T18:48:56.963Z,2.03
2022-09-20T18:51:26.194Z,1.00
2022-09-20T18:53:53.992Z,0.90
2022-09-20T18:56:25.158Z,2.38
2022-09-20T18:58:54.271Z,1.52
2022-09-20T19:01:40.244Z,2.13
2022-09-20T19:04:26.683Z,0.85
2022-09-20T19:07:02.886Z,1.63
2022-09-20T19:09:38.213Z,1.85
2022-09-20T19:12:20.301Z,0.90
2022-09-20T19:15:02.690Z,2.05
2022-09-20T19:17:46.257Z,2.13
2022-09-20T19:20:22.191Z,1.60
2022-09-20T19:23:00.496Z,1.27
2022-09-20T19:25:37.878Z,1.30
2022-09-20T19:28:05.915Z,1.05
2022-09-20T19:30:34.047Z,1.20
2022-09-20T19:33:03.406Z,1.42
2022-09-20T19:35:36.835Z,1.63
2022-09-20T19:38:15.448Z,1.30
2022-09-20T19:40:48.538Z,1.77
2022-09-20T19:43:32.753Z,1.20
2022-09-20T19:46:10.734Z,1.08
2022-09-20T19:48:42.865Z,1.23
2022-09-20T19:51:12.037Z,2.35
2022-09-20T19:53:40.174Z,1.20
2022-09-20T19:56:21.286Z,1.00
2022-09-20T19:58:52.936Z,1.02
2022-09-20T20:01:22.594Z,1.20
2022-09-20T20:03:52.525Z,1.60
2022-09-20T20:06:27.094Z,1.15
2022-09-20T20:09:02.978Z,1.50
2022-09-20T20:11:39.870Z,1.13
2022-09-20T20:14:27.985Z,1.58
2022-09-20T20:17:04.120Z,1.52
2022-09-20T20:19:51.175Z,1.50
2022-09-20T20:22:32.789Z,1.30
2022-09-20T20:25:00.867Z,1.75
2022-09-20T20:27:29.110Z,1.92
2022-09-20T20:29:56.870Z,2.10
2022-09-20T20:32:25.814Z,2.13
2022-09-20T20:34:54.658Z,2.83
2022-09-20T20:37:24.308Z,1.92
2022-09-20T20:39:52.103Z,1.40
2022-09-20T20:42:19.634Z,1.48
2022-09-20T20:44:47.507Z,1.10
2022-09-20T20:47:15.010Z,1.52
2022-09-20T20:49:42.477Z,1.05
2022-09-20T20:52:11.418Z,1.25
2022-09-20T20:54:39.253Z,0.80
2022-09-20T20:57:06.734Z,1.27
2022-09-20T20:59:34.344Z,0.70
2022-09-20T21:02:07.141Z,0.75
2022-09-20T21:04:36.877Z,0.60
2022-09-20T21:07:04.472Z,0.67
2022-09-20T21:09:33.271Z,0.70
2022-09-20T21:12:00.771Z,0.80
2022-09-20T21:14:28.220Z,0.60
2022-09-20T21:16:55.937Z,0.50
2022-09-20T21:19:23.739Z,0.70
2022-09-20T21:21:51.220Z,0.90
2022-09-20T21:24:18.689Z,0.70
2022-09-20T21:26:48.457Z,0.70
2022-09-20T21:29:16.974Z,0.45
2022-09-20T21:31:46.680Z,0.47
2022-09-20T21:34:16.014Z,0.70
2022-09-20T21:36:44.580Z,0.60
2022-09-20T21:39:13.131Z,0.70
2022-09-20T21:41:41.101Z,0.60
2022-09-20T21:44:11.992Z,0.57
2022-09-20T21:46:40.893Z,0.70
2022-09-20T21:49:09.852Z,0.50
2022-09-20T21:51:38.754Z,0.60
2022-09-20T21:54:06.964Z,0.57
2022-09-20T21:56:36.328Z,0.60
2022-09-20T21:59:04.639Z,0.55
2022-09-20T22:01:35.665Z,0.75
2022-09-20T22:04:06.544Z,0.50
2022-09-20T22:06:35.895Z,0.60
2022-09-20T22:09:05.678Z,0.80
2022-09-20T22:14:01.666Z,0.60
2022-09-20T22:16:30.655Z,0.57
2022-09-20T22:19:00.442Z,0.60
2022-09-20T22:23:58.416Z,0.43
2022-09-20T22:26:27.943Z,0.65
2022-09-20T22:28:55.761Z,1.30
2022-09-20T22:31:25.828Z,0.80
2022-09-20T22:33:55.368Z,0.60
2022-09-20T22:36:26.180Z,0.32
2022-09-20T22:38:54.250Z,0.60
2022-09-20T22:41:22.179Z,0.70
2022-09-20T22:43:50.358Z,0.57
2022-09-20T22:46:19.550Z,0.80
2022-09-20T22:48:48.558Z,0.50
2022-09-20T22:51:18.176Z,0.70
2022-09-20T22:53:47.999Z,0.57
2022-09-20T22:58:45.648Z,0.60
2022-09-20T23:01:15.544Z,0.63
2022-09-20T23:03:45.177Z,0.80
2022-09-20T23:06:14.897Z,1.08
2022-09-20T23:08:42.810Z,0.70
2022-09-20T23:11:12.105Z,0.50
2022-09-20T23:13:40.095Z,0.90
2022-09-20T23:16:15.030Z,0.63
2022-09-20T23:18:42.653Z,0.70
2022-09-20T23:21:10.119Z,0.73
2022-09-20T23:23:38.151Z,0.88
2022-09-20T23:26:07.813Z,0.70
2022-09-20T23:28:37.729Z,0.50
2022-09-20T23:33:33.703Z,0.80
2022-09-20T23:36:03.446Z,0.82
2022-09-20T23:38:30.927Z,0.88
2022-09-20T23:41:03.741Z,1.10
2022-09-20T23:43:31.440Z,0.85
2022-09-20T23:46:00.806Z,1.10
2022-09-20T23:48:28.360Z,1.15
2022-09-20T23:50:56.206Z,1.05
2022-09-20T23:53:24.109Z,1.10
2022-09-20T23:55:51.897Z,1.27
2022-09-20T23:58:19.335Z,1.10
